sensor_id;sensor_type;location;lat;lon;timestamp;P1;durP1;ratioP1;P2;durP2;ratioP2
1410;SDS011;700;51.906;8.404;2023-07-31T00:01:23;2.10;;;1.70;;
1410;SDS011;700;51.906;8.404;2023-07-31T00:06:26;2.13;;;1.70;;
1410;SDS011;700;51.906;8.404;2023-07-31T00:11:28;3.00;;;1.87;;
1410;SDS011;700;51.906;8.404;2023-07-31T00:16:29;3.90;;;1.73;;
1410;SDS011;700;51.906;8.404;2023-07-31T00:21:32;2.00;;;1.77;;
1410;SDS011;700;51.906;8.404;2023-07-31T00:26:35;2.33;;;1.90;;
1410;SDS011;700;51.906;8.404;2023-07-31T00:31:35;2.40;;;2.20;;
1410;SDS011;700;51.906;8.404;2023-07-31T00:36:36;2.20;;;2.00;;
1410;SDS011;700;51.906;8.404;2023-07-31T00:41:36;1.70;;;1.50;;
1410;SDS011;700;51.906;8.404;2023-07-31T00:46:37;1.70;;;1.37;;
1410;SDS011;700;51.906;8.404;2023-07-31T00:51:38;1.80;;;1.40;;
1410;SDS011;700;51.906;8.404;2023-07-31T00:56:38;2.20;;;1.73;;
1410;SDS011;700;51.906;8.404;2023-07-31T01:01:40;2.07;;;1.57;;
1410;SDS011;700;51.906;8.404;2023-07-31T01:12:01;1.60;;;1.20;;
1410;SDS011;700;51.906;8.404;2023-07-31T01:17:03;1.77;;;1.30;;
1410;SDS011;700;51.906;8.404;2023-07-31T01:27:30;2.60;;;1.80;;
1410;SDS011;700;51.906;8.404;2023-07-31T01:32:34;2.27;;;1.30;;
1410;SDS011;700;51.906;8.404;2023-07-31T01:37:35;2.43;;;1.73;;
1410;SDS011;700;51.906;8.404;2023-07-31T01:42:38;2.13;;;1.40;;
1410;SDS011;700;51.906;8.404;2023-07-31T01:47:41;2.40;;;1.53;;
1410;SDS011;700;51.906;8.404;2023-07-31T01:52:42;2.17;;;1.47;;
1410;SDS011;700;51.906;8.404;2023-07-31T01:57:45;2.43;;;1.30;;
1410;SDS011;700;51.906;8.404;2023-07-31T02:02:46;2.43;;;1.50;;
1410;SDS011;700;51.906;8.404;2023-07-31T02:07:48;2.00;;;1.33;;
1410;SDS011;700;51.906;8.404;2023-07-31T02:12:49;2.23;;;1.50;;
1410;SDS011;700;51.906;8.404;2023-07-31T02:17:52;2.10;;;1.50;;
1410;SDS011;700;51.906;8.404;2023-07-31T02:22:53;2.93;;;1.90;;
1410;SDS011;700;51.906;8.404;2023-07-31T02:27:56;3.40;;;1.93;;
1410;SDS011;700;51.906;8.404;2023-07-31T02:32:57;3.20;;;1.87;;
1410;SDS011;700;51.906;8.404;2023-07-31T02:38:00;2.77;;;2.23;;
1410;SDS011;700;51.906;8.404;2023-07-31T02:43:00;2.63;;;1.73;;
1410;SDS011;700;51.906;8.404;2023-07-31T02:48:03;4.10;;;3.13;;
1410;SDS011;700;51.906;8.404;2023-07-31T02:53:04;3.67;;;2.80;;
1410;SDS011;700;51.906;8.404;2023-07-31T02:58:05;3.90;;;2.93;;
1410;SDS011;700;51.906;8.404;2023-07-31T03:03:05;5.80;;;4.43;;
1410;SDS011;700;51.906;8.404;2023-07-31T03:08:11;8.23;;;6.30;;
1410;SDS011;700;51.906;8.404;2023-07-31T03:13:13;9.90;;;8.30;;
1410;SDS011;700;51.906;8.404;2023-07-31T03:18:16;13.87;;;9.10;;
1410;SDS011;700;51.906;8.404;2023-07-31T03:23:19;12.20;;;10.10;;
1410;SDS011;700;51.906;8.404;2023-07-31T03:28:25;12.70;;;9.70;;
1410;SDS011;700;51.906;8.404;2023-07-31T03:33:27;11.97;;;9.10;;
1410;SDS011;700;51.906;8.404;2023-07-31T03:38:28;13.80;;;9.87;;
1410;SDS011;700;51.906;8.404;2023-07-31T03:43:29;14.23;;;8.60;;
1410;SDS011;700;51.906;8.404;2023-07-31T03:48:36;11.30;;;7.73;;
1410;SDS011;700;51.906;8.404;2023-07-31T03:53:36;10.83;;;8.30;;
1410;SDS011;700;51.906;8.404;2023-07-31T03:58:39;11.97;;;8.30;;
1410;SDS011;700;51.906;8.404;2023-07-31T04:03:40;14.73;;;8.30;;
1410;SDS011;700;51.906;8.404;2023-07-31T04:08:43;17.97;;;8.23;;
1410;SDS011;700;51.906;8.404;2023-07-31T04:13:47;13.47;;;7.83;;
1410;SDS011;700;51.906;8.404;2023-07-31T04:18:50;17.73;;;7.70;;
1410;SDS011;700;51.906;8.404;2023-07-31T04:23:51;9.47;;;6.40;;
1410;SDS011;700;51.906;8.404;2023-07-31T04:28:58;10.90;;;8.53;;
1410;SDS011;700;51.906;8.404;2023-07-31T04:34:01;14.50;;;8.53;;
1410;SDS011;700;51.906;8.404;2023-07-31T04:39:01;11.90;;;6.80;;
1410;SDS011;700;51.906;8.404;2023-07-31T04:44:02;10.60;;;6.77;;
1410;SDS011;700;51.906;8.404;2023-07-31T04:49:05;15.03;;;7.97;;
1410;SDS011;700;51.906;8.404;2023-07-31T04:54:05;16.80;;;6.27;;
1410;SDS011;700;51.906;8.404;2023-07-31T04:59:08;12.27;;;6.50;;
1410;SDS011;700;51.906;8.404;2023-07-31T05:04:14;12.60;;;7.03;;
1410;SDS011;700;51.906;8.404;2023-07-31T05:09:15;11.97;;;6.37;;
1410;SDS011;700;51.906;8.404;2023-07-31T05:14:16;10.90;;;6.07;;
1410;SDS011;700;51.906;8.404;2023-07-31T05:19:19;9.30;;;5.50;;
1410;SDS011;700;51.906;8.404;2023-07-31T05:24:19;11.07;;;6.47;;
1410;SDS011;700;51.906;8.404;2023-07-31T05:29:20;12.37;;;6.60;;
1410;SDS011;700;51.906;8.404;2023-07-31T05:34:20;13.17;;;6.10;;
1410;SDS011;700;51.906;8.404;2023-07-31T05:39:23;8.90;;;5.60;;
1410;SDS011;700;51.906;8.404;2023-07-31T05:44:24;10.73;;;5.00;;
1410;SDS011;700;51.906;8.404;2023-07-31T05:49:30;7.50;;;5.10;;
1410;SDS011;700;51.906;8.404;2023-07-31T05:54:33;14.07;;;7.10;;
1410;SDS011;700;51.906;8.404;2023-07-31T05:59:38;9.23;;;5.30;;
1410;SDS011;700;51.906;8.404;2023-07-31T06:04:41;8.47;;;5.20;;
1410;SDS011;700;51.906;8.404;2023-07-31T06:09:41;7.47;;;5.30;;
1410;SDS011;700;51.906;8.404;2023-07-31T06:14:44;10.70;;;6.13;;
1410;SDS011;700;51.906;8.404;2023-07-31T06:19:47;8.70;;;5.20;;
1410;SDS011;700;51.906;8.404;2023-07-31T06:24:50;8.00;;;5.13;;
1410;SDS011;700;51.906;8.404;2023-07-31T06:29:51;7.90;;;5.10;;
1410;SDS011;700;51.906;8.404;2023-07-31T06:34:54;9.20;;;5.40;;
1410;SDS011;700;51.906;8.404;2023-07-31T06:39:54;8.77;;;5.27;;
1410;SDS011;700;51.906;8.404;2023-07-31T06:44:55;8.03;;;4.90;;
1410;SDS011;700;51.906;8.404;2023-07-31T06:49:58;10.60;;;4.73;;
1410;SDS011;700;51.906;8.404;2023-07-31T06:55:20;8.80;;;4.77;;
1410;SDS011;700;51.906;8.404;2023-07-31T07:00:21;9.17;;;4.97;;
1410;SDS011;700;51.906;8.404;2023-07-31T07:05:22;9.80;;;4.90;;
1410;SDS011;700;51.906;8.404;2023-07-31T07:10:25;10.07;;;5.57;;
1410;SDS011;700;51.906;8.404;2023-07-31T07:15:26;9.37;;;5.13;;
1410;SDS011;700;51.906;8.404;2023-07-31T07:20:28;11.20;;;5.37;;
1410;SDS011;700;51.906;8.404;2023-07-31T07:25:28;5.40;;;4.37;;
1410;SDS011;700;51.906;8.404;2023-07-31T07:30:29;5.57;;;4.50;;
1410;SDS011;700;51.906;8.404;2023-07-31T07:35:30;9.37;;;6.00;;
1410;SDS011;700;51.906;8.404;2023-07-31T07:40:30;7.90;;;4.43;;
1410;SDS011;700;51.906;8.404;2023-07-31T07:45:31;8.83;;;5.07;;
1410;SDS011;700;51.906;8.404;2023-07-31T07:50:31;8.47;;;4.77;;
1410;SDS011;700;51.906;8.404;2023-07-31T07:55:37;6.20;;;3.80;;
1410;SDS011;700;51.906;8.404;2023-07-31T08:00:40;6.80;;;5.07;;
1410;SDS011;700;51.906;8.404;2023-07-31T08:05:41;5.57;;;4.83;;
1410;SDS011;700;51.906;8.404;2023-07-31T08:10:42;6.70;;;4.50;;
1410;SDS011;700;51.906;8.404;2023-07-31T08:15:43;6.60;;;4.97;;
1410;SDS011;700;51.906;8.404;2023-07-31T08:20:46;6.47;;;4.50;;
1410;SDS011;700;51.906;8.404;2023-07-31T08:25:49;8.40;;;5.33;;
1410;SDS011;700;51.906;8.404;2023-07-31T08:30:52;6.93;;;5.23;;
1410;SDS011;700;51.906;8.404;2023-07-31T08:35:57;6.53;;;5.60;;
1410;SDS011;700;51.906;8.404;2023-07-31T08:41:02;7.03;;;5.23;;
1410;SDS011;700;51.906;8.404;2023-07-31T08:46:03;10.27;;;6.47;;
1410;SDS011;700;51.906;8.404;2023-07-31T08:51:05;7.30;;;5.60;;
1410;SDS011;700;51.906;8.404;2023-07-31T08:56:07;7.37;;;4.83;;
1410;SDS011;700;51.906;8.404;2023-07-31T09:01:08;5.67;;;4.57;;
1410;SDS011;700;51.906;8.404;2023-07-31T09:06:09;5.87;;;4.73;;
1410;SDS011;700;51.906;8.404;2023-07-31T09:11:15;5.93;;;4.60;;
1410;SDS011;700;51.906;8.404;2023-07-31T09:16:18;7.80;;;4.93;;
1410;SDS011;700;51.906;8.404;2023-07-31T09:21:21;4.87;;;3.50;;
1410;SDS011;700;51.906;8.404;2023-07-31T09:26:29;5.20;;;3.70;;
1410;SDS011;700;51.906;8.404;2023-07-31T09:36:43;5.17;;;4.00;;
1410;SDS011;700;51.906;8.404;2023-07-31T09:41:55;4.60;;;4.10;;
1410;SDS011;700;51.906;8.404;2023-07-31T09:46:56;4.00;;;3.00;;
1410;SDS011;700;51.906;8.404;2023-07-31T09:51:56;5.40;;;3.70;;
1410;SDS011;700;51.906;8.404;2023-07-31T09:56:57;6.73;;;4.07;;
1410;SDS011;700;51.906;8.404;2023-07-31T10:02:00;4.77;;;3.53;;
1410;SDS011;700;51.906;8.404;2023-07-31T10:07:01;11.77;;;10.57;;
1410;SDS011;700;51.906;8.404;2023-07-31T10:12:03;6.20;;;4.57;;
1410;SDS011;700;51.906;8.404;2023-07-31T10:17:09;4.67;;;3.30;;
1410;SDS011;700;51.906;8.404;2023-07-31T10:22:16;3.57;;;2.40;;
1410;SDS011;700;51.906;8.404;2023-07-31T10:27:20;2.20;;;1.93;;
1410;SDS011;700;51.906;8.404;2023-07-31T10:32:23;3.47;;;2.10;;
1410;SDS011;700;51.906;8.404;2023-07-31T10:42:33;2.50;;;1.80;;
1410;SDS011;700;51.906;8.404;2023-07-31T10:47:44;2.03;;;1.80;;
1410;SDS011;700;51.906;8.404;2023-07-31T10:52:46;2.30;;;1.57;;
1410;SDS011;700;51.906;8.404;2023-07-31T10:57:49;3.20;;;1.47;;
1410;SDS011;700;51.906;8.404;2023-07-31T11:02:56;2.00;;;1.70;;
1410;SDS011;700;51.906;8.404;2023-07-31T11:08:24;2.70;;;1.90;;
1410;SDS011;700;51.906;8.404;2023-07-31T11:13:27;2.40;;;1.90;;
1410;SDS011;700;51.906;8.404;2023-07-31T11:18:30;3.70;;;1.97;;
1410;SDS011;700;51.906;8.404;2023-07-31T11:23:31;2.70;;;2.17;;
1410;SDS011;700;51.906;8.404;2023-07-31T11:28:32;3.80;;;2.53;;
1410;SDS011;700;51.906;8.404;2023-07-31T11:33:38;3.77;;;2.30;;
1410;SDS011;700;51.906;8.404;2023-07-31T11:38:39;2.37;;;1.83;;
1410;SDS011;700;51.906;8.404;2023-07-31T11:43:39;2.10;;;1.90;;
1410;SDS011;700;51.906;8.404;2023-07-31T11:48:40;3.70;;;1.70;;
1410;SDS011;700;51.906;8.404;2023-07-31T11:53:44;5.67;;;2.30;;
1410;SDS011;700;51.906;8.404;2023-07-31T11:58:50;3.10;;;1.67;;
1410;SDS011;700;51.906;8.404;2023-07-31T12:03:58;2.20;;;1.70;;
1410;SDS011;700;51.906;8.404;2023-07-31T12:09:03;3.00;;;1.60;;
1410;SDS011;700;51.906;8.404;2023-07-31T12:14:07;2.30;;;1.47;;
1410;SDS011;700;51.906;8.404;2023-07-31T12:19:11;3.80;;;2.10;;
1410;SDS011;700;51.906;8.404;2023-07-31T12:24:14;1.87;;;1.37;;
1410;SDS011;700;51.906;8.404;2023-07-31T12:29:17;4.30;;;1.60;;
1410;SDS011;700;51.906;8.404;2023-07-31T12:34:20;1.60;;;1.37;;
1410;SDS011;700;51.906;8.404;2023-07-31T12:39:21;2.83;;;1.73;;
1410;SDS011;700;51.906;8.404;2023-07-31T12:44:24;3.93;;;1.47;;
1410;SDS011;700;51.906;8.404;2023-07-31T12:49:26;3.00;;;1.90;;
1410;SDS011;700;51.906;8.404;2023-07-31T12:54:29;2.90;;;2.23;;
1410;SDS011;700;51.906;8.404;2023-07-31T12:59:31;2.70;;;2.50;;
1410;SDS011;700;51.906;8.404;2023-07-31T13:04:31;2.93;;;2.63;;
1410;SDS011;700;51.906;8.404;2023-07-31T13:09:37;3.70;;;2.60;;
1410;SDS011;700;51.906;8.404;2023-07-31T13:14:40;4.57;;;2.40;;
1410;SDS011;700;51.906;8.404;2023-07-31T13:19:45;4.50;;;2.73;;
1410;SDS011;700;51.906;8.404;2023-07-31T13:24:46;3.67;;;2.60;;
1410;SDS011;700;51.906;8.404;2023-07-31T13:29:46;4.83;;;2.43;;
1410;SDS011;700;51.906;8.404;2023-07-31T13:34:50;3.13;;;2.50;;
1410;SDS011;700;51.906;8.404;2023-07-31T13:39:51;3.10;;;2.27;;
1410;SDS011;700;51.906;8.404;2023-07-31T13:44:52;4.20;;;2.57;;
1410;SDS011;700;51.906;8.404;2023-07-31T13:49:54;3.20;;;2.47;;
1410;SDS011;700;51.906;8.404;2023-07-31T13:54:55;4.93;;;2.80;;
1410;SDS011;700;51.906;8.404;2023-07-31T13:59:58;3.53;;;2.50;;
1410;SDS011;700;51.906;8.404;2023-07-31T14:05:02;3.23;;;2.23;;
1410;SDS011;700;51.906;8.404;2023-07-31T14:10:03;2.57;;;2.20;;
1410;SDS011;700;51.906;8.404;2023-07-31T14:15:04;2.20;;;2.00;;
1410;SDS011;700;51.906;8.404;2023-07-31T14:20:05;3.40;;;2.40;;
1410;SDS011;700;51.906;8.404;2023-07-31T14:25:07;3.67;;;2.17;;
1410;SDS011;700;51.906;8.404;2023-07-31T14:30:12;3.70;;;2.40;;
1410;SDS011;700;51.906;8.404;2023-07-31T14:35:13;2.40;;;2.07;;
1410;SDS011;700;51.906;8.404;2023-07-31T14:40:16;4.40;;;2.83;;
1410;SDS011;700;51.906;8.404;2023-07-31T14:45:16;4.47;;;1.97;;
1410;SDS011;700;51.906;8.404;2023-07-31T14:50:17;4.50;;;3.37;;
1410;SDS011;700;51.906;8.404;2023-07-31T14:55:18;3.50;;;1.93;;
1410;SDS011;700;51.906;8.404;2023-07-31T15:00:21;2.30;;;1.77;;
1410;SDS011;700;51.906;8.404;2023-07-31T15:05:24;2.53;;;1.83;;
1410;SDS011;700;51.906;8.404;2023-07-31T15:10:27;2.33;;;1.83;;
1410;SDS011;700;51.906;8.404;2023-07-31T15:15:30;3.80;;;1.87;;
1410;SDS011;700;51.906;8.404;2023-07-31T15:20:35;3.27;;;1.90;;
1410;SDS011;700;51.906;8.404;2023-07-31T15:25:41;3.00;;;1.70;;
1410;SDS011;700;51.906;8.404;2023-07-31T15:30:42;2.90;;;2.03;;
1410;SDS011;700;51.906;8.404;2023-07-31T15:35:43;2.90;;;1.83;;
1410;SDS011;700;51.906;8.404;2023-07-31T15:40:43;3.17;;;2.17;;
1410;SDS011;700;51.906;8.404;2023-07-31T15:45:44;3.03;;;1.97;;
1410;SDS011;700;51.906;8.404;2023-07-31T15:50:47;3.23;;;2.40;;
1410;SDS011;700;51.906;8.404;2023-07-31T15:55:47;4.07;;;2.40;;
1410;SDS011;700;51.906;8.404;2023-07-31T16:00:50;2.67;;;2.00;;
1410;SDS011;700;51.906;8.404;2023-07-31T16:05:53;5.83;;;2.67;;
1410;SDS011;700;51.906;8.404;2023-07-31T16:10:54;2.90;;;2.13;;
1410;SDS011;700;51.906;8.404;2023-07-31T16:15:56;3.07;;;2.33;;
1410;SDS011;700;51.906;8.404;2023-07-31T16:20:56;3.90;;;2.93;;
1410;SDS011;700;51.906;8.404;2023-07-31T16:25:57;3.50;;;2.80;;
1410;SDS011;700;51.906;8.404;2023-07-31T16:30:57;4.30;;;2.30;;
1410;SDS011;700;51.906;8.404;2023-07-31T16:36:00;4.23;;;3.10;;
1410;SDS011;700;51.906;8.404;2023-07-31T16:41:03;4.27;;;3.13;;
1410;SDS011;700;51.906;8.404;2023-07-31T16:46:05;2.90;;;2.60;;
1410;SDS011;700;51.906;8.404;2023-07-31T16:51:08;5.10;;;4.37;;
1410;SDS011;700;51.906;8.404;2023-07-31T16:56:08;4.40;;;2.70;;
1410;SDS011;700;51.906;8.404;2023-07-31T17:01:10;5.17;;;3.40;;
1410;SDS011;700;51.906;8.404;2023-07-31T17:06:10;5.20;;;3.43;;
1410;SDS011;700;51.906;8.404;2023-07-31T17:11:13;4.00;;;3.50;;
1410;SDS011;700;51.906;8.404;2023-07-31T17:16:17;6.07;;;4.60;;
1410;SDS011;700;51.906;8.404;2023-07-31T17:21:18;3.93;;;3.13;;
1410;SDS011;700;51.906;8.404;2023-07-31T17:26:19;3.67;;;3.27;;
1410;SDS011;700;51.906;8.404;2023-07-31T17:31:22;5.90;;;4.40;;
1410;SDS011;700;51.906;8.404;2023-07-31T17:36:23;9.53;;;4.57;;
1410;SDS011;700;51.906;8.404;2023-07-31T17:41:23;8.17;;;6.60;;
1410;SDS011;700;51.906;8.404;2023-07-31T17:46:28;8.47;;;5.10;;
1410;SDS011;700;51.906;8.404;2023-07-31T17:51:29;7.60;;;5.17;;
1410;SDS011;700;51.906;8.404;2023-07-31T17:56:33;6.80;;;5.10;;
1410;SDS011;700;51.906;8.404;2023-07-31T18:01:37;9.20;;;5.47;;
1410;SDS011;700;51.906;8.404;2023-07-31T18:06:40;6.10;;;4.40;;
1410;SDS011;700;51.906;8.404;2023-07-31T18:11:41;5.67;;;4.60;;
1410;SDS011;700;51.906;8.404;2023-07-31T18:16:43;3.97;;;3.57;;
1410;SDS011;700;51.906;8.404;2023-07-31T18:21:44;5.87;;;3.80;;
1410;SDS011;700;51.906;8.404;2023-07-31T18:26:45;6.73;;;3.67;;
1410;SDS011;700;51.906;8.404;2023-07-31T18:31:50;4.40;;;3.87;;
1410;SDS011;700;51.906;8.404;2023-07-31T18:36:53;4.40;;;4.00;;
1410;SDS011;700;51.906;8.404;2023-07-31T18:41:54;5.30;;;4.00;;
1410;SDS011;700;51.906;8.404;2023-07-31T18:46:54;5.40;;;3.90;;
1410;SDS011;700;51.906;8.404;2023-07-31T18:51:55;4.70;;;3.43;;
1410;SDS011;700;51.906;8.404;2023-07-31T18:56:55;5.70;;;3.50;;
1410;SDS011;700;51.906;8.404;2023-07-31T19:01:58;5.30;;;3.70;;
1410;SDS011;700;51.906;8.404;2023-07-31T19:06:59;7.50;;;3.60;;
1410;SDS011;700;51.906;8.404;2023-07-31T19:12:00;4.77;;;3.60;;
1410;SDS011;700;51.906;8.404;2023-07-31T19:17:00;5.47;;;3.40;;
1410;SDS011;700;51.906;8.404;2023-07-31T19:22:04;3.63;;;3.10;;
1410;SDS011;700;51.906;8.404;2023-07-31T19:27:05;3.50;;;3.20;;
1410;SDS011;700;51.906;8.404;2023-07-31T19:32:08;4.73;;;3.50;;
1410;SDS011;700;51.906;8.404;2023-07-31T19:37:08;3.43;;;3.00;;
1410;SDS011;700;51.906;8.404;2023-07-31T19:42:11;6.03;;;3.40;;
1410;SDS011;700;51.906;8.404;2023-07-31T19:47:14;3.60;;;3.30;;
1410;SDS011;700;51.906;8.404;2023-07-31T19:52:19;4.20;;;3.17;;
1410;SDS011;700;51.906;8.404;2023-07-31T19:57:20;3.50;;;2.70;;
1410;SDS011;700;51.906;8.404;2023-07-31T20:02:21;4.13;;;2.90;;
1410;SDS011;700;51.906;8.404;2023-07-31T20:07:24;6.77;;;4.13;;
1410;SDS011;700;51.906;8.404;2023-07-31T20:12:29;4.20;;;3.30;;
1410;SDS011;700;51.906;8.404;2023-07-31T20:17:32;3.47;;;2.83;;
1410;SDS011;700;51.906;8.404;2023-07-31T20:22:33;9.93;;;3.67;;
1410;SDS011;700;51.906;8.404;2023-07-31T20:27:36;3.60;;;2.90;;
1410;SDS011;700;51.906;8.404;2023-07-31T20:32:39;2.97;;;2.30;;
1410;SDS011;700;51.906;8.404;2023-07-31T20:37:40;5.43;;;2.47;;
1410;SDS011;700;51.906;8.404;2023-07-31T20:42:42;3.63;;;2.17;;
1410;SDS011;700;51.906;8.404;2023-07-31T20:47:43;4.40;;;1.90;;
1410;SDS011;700;51.906;8.404;2023-07-31T20:52:45;4.50;;;1.93;;
1410;SDS011;700;51.906;8.404;2023-07-31T20:57:45;3.10;;;1.70;;
1410;SDS011;700;51.906;8.404;2023-07-31T21:02:46;3.50;;;2.10;;
1410;SDS011;700;51.906;8.404;2023-07-31T21:07:49;2.57;;;1.83;;
1410;SDS011;700;51.906;8.404;2023-07-31T21:12:54;2.40;;;1.70;;
1410;SDS011;700;51.906;8.404;2023-07-31T21:17:56;3.10;;;2.40;;
1410;SDS011;700;51.906;8.404;2023-07-31T21:22:59;2.13;;;1.50;;
1410;SDS011;700;51.906;8.404;2023-07-31T21:28:06;2.10;;;1.20;;
1410;SDS011;700;51.906;8.404;2023-07-31T21:33:09;1.60;;;1.00;;
1410;SDS011;700;51.906;8.404;2023-07-31T21:38:10;2.20;;;1.23;;
1410;SDS011;700;51.906;8.404;2023-07-31T21:43:13;2.20;;;1.90;;
1410;SDS011;700;51.906;8.404;2023-07-31T21:48:16;1.50;;;1.10;;
1410;SDS011;700;51.906;8.404;2023-07-31T21:53:17;2.57;;;1.20;;
1410;SDS011;700;51.906;8.404;2023-07-31T21:58:18;3.17;;;1.60;;
1410;SDS011;700;51.906;8.404;2023-07-31T22:03:21;2.10;;;1.27;;
1410;SDS011;700;51.906;8.404;2023-07-31T22:08:21;1.70;;;1.10;;
1410;SDS011;700;51.906;8.404;2023-07-31T22:13:22;1.87;;;1.20;;
1410;SDS011;700;51.906;8.404;2023-07-31T22:18:23;1.50;;;1.10;;
1410;SDS011;700;51.906;8.404;2023-07-31T22:23:28;1.80;;;1.33;;
1410;SDS011;700;51.906;8.404;2023-07-31T22:28:29;2.30;;;1.60;;
1410;SDS011;700;51.906;8.404;2023-07-31T22:33:29;2.03;;;1.50;;
1410;SDS011;700;51.906;8.404;2023-07-31T22:38:30;2.57;;;1.30;;
1410;SDS011;700;51.906;8.404;2023-07-31T22:43:30;2.43;;;1.37;;
1410;SDS011;700;51.906;8.404;2023-07-31T22:48:31;2.47;;;1.57;;
1410;SDS011;700;51.906;8.404;2023-07-31T22:53:34;1.60;;;1.50;;
1410;SDS011;700;51.906;8.404;2023-07-31T22:58:37;1.97;;;1.77;;
1410;SDS011;700;51.906;8.404;2023-07-31T23:03:38;2.30;;;2.10;;
1410;SDS011;700;51.906;8.404;2023-07-31T23:08:41;1.80;;;1.50;;
1410;SDS011;700;51.906;8.404;2023-07-31T23:13:43;2.80;;;1.60;;
1410;SDS011;700;51.906;8.404;2023-07-31T23:18:44;2.20;;;1.30;;
1410;SDS011;700;51.906;8.404;2023-07-31T23:23:45;1.90;;;1.13;;
1410;SDS011;700;51.906;8.404;2023-07-31T23:28:45;1.60;;;1.33;;
1410;SDS011;700;51.906;8.404;2023-07-31T23:33:46;1.47;;;1.30;;
1410;SDS011;700;51.906;8.404;2023-07-31T23:38:48;3.10;;;1.40;;
1410;SDS011;700;51.906;8.404;2023-07-31T23:43:53;2.80;;;1.10;;
1410;SDS011;700;51.906;8.404;2023-07-31T23:48:56;1.40;;;1.10;;
1410;SDS011;700;51.906;8.404;2023-07-31T23:53:57;1.30;;;1.03;;
1410;SDS011;700;51.906;8.404;2023-07-31T23:59:02;1.60;;;1.17;;
